Time;durP1;ratioP1;P1;durP2;ratioP2;P2;SDS_P1;SDS_P2;PMS_P1;PMS_P2;Temp;Humidity;BMP_temperature;BMP_pressure;BME280_temperature;BME280_humidity;BME280_pressure;Samples;Min_cycle;Max_cycle;Signal;HPM_P1;HPM_P2
2022/03/31 00:01:21;;;;;;;5.63;4.57;;;;;;;-148.33;100.00;56587.81;5047635;28;20048;-56
2022/03/31 00:03:47;;;;;;;4.83;4.33;;;;;;;-148.33;100.00;56587.81;5048134;28;20428;-55
2022/03/31 00:06:12;;;;;;;4.43;4.07;;;;;;;-148.33;100.00;56587.81;5048622;28;20028;-58
2022/03/31 00:08:38;;;;;;;4.63;4.22;;;;;;;-148.33;100.00;56587.81;5048596;28;20100;-57
2022/03/31 00:11:04;;;;;;;5.28;4.78;;;;;;;-148.33;100.00;56587.81;5048383;28;20021;-58
2022/03/31 00:13:30;;;;;;;5.23;4.80;;;;;;;-148.33;100.00;56587.81;5048041;28;20024;-58
2022/03/31 00:15:58;;;;;;;5.15;4.65;;;;;;;-148.33;100.00;56587.81;5047283;28;20024;-57
2022/03/31 00:18:24;;;;;;;4.95;4.35;;;;;;;-148.33;100.00;56587.81;5048091;28;20424;-55
2022/03/31 00:33:57;;;;;;;6.20;5.60;;;;;;;-148.33;100.00;56587.81;5048224;28;20052;-58
2022/03/31 00:36:23;;;;;;;5.93;5.33;;;;;;;-148.33;100.00;56587.81;5047216;28;20021;-59
2022/03/31 00:41:37;;;;;;;6.50;5.90;;;;;;;-148.33;100.00;56587.81;5048176;28;20098;-58
2022/03/31 00:44:03;;;;;;;7.18;6.18;;;;;;;-148.33;100.00;56587.81;5047657;28;20104;-58
2022/03/31 00:46:30;;;;;;;7.10;6.50;;;;;;;-148.33;100.00;56587.81;5047940;28;20082;-58
2022/03/31 00:48:55;;;;;;;6.97;6.38;;;;;;;-148.33;100.00;56587.81;5047614;28;20033;-55
2022/03/31 00:51:21;;;;;;;7.97;7.17;;;;;;;-148.33;100.00;56587.81;5047799;28;20083;-57
2022/03/31 00:53:46;;;;;;;7.77;7.13;;;;;;;-148.33;100.00;56587.81;5047820;28;20056;-58
2022/03/31 00:56:12;;;;;;;7.80;7.07;;;;;;;-148.33;100.00;56587.81;5047703;28;20404;-57
2022/03/31 00:58:39;;;;;;;7.23;6.50;;;;;;;-148.33;100.00;56587.81;5047440;28;20028;-58
2022/03/31 01:01:04;;;;;;;8.13;6.93;;;;;;;-148.33;100.00;56587.81;5047143;28;20041;-56
2022/03/31 01:03:30;;;;;;;7.53;6.80;;;;;;;-148.33;100.00;56587.81;5047846;28;20044;-58
2022/03/31 01:05:55;;;;;;;7.33;6.63;;;;;;;-148.33;100.00;56587.81;5047655;28;20025;-59
2022/03/31 01:08:21;;;;;;;7.63;6.93;;;;;;;-148.33;100.00;56587.81;5029553;28;20050;-59
2022/03/31 01:10:50;;;;;;;18.55;7.28;;;;;;;-148.33;100.00;56587.81;5047235;28;20362;-56
2022/03/31 01:13:15;;;;;;;7.90;7.10;;;;;;;-148.33;100.00;56587.81;5047381;28;20029;-56
2022/03/31 01:15:41;;;;;;;8.47;6.77;;;;;;;-148.33;100.00;56587.81;5047744;28;20544;-58
2022/03/31 01:18:06;;;;;;;8.17;7.37;;;;;;;-148.33;100.00;56587.81;5047760;28;20033;-57
2022/03/31 01:20:33;;;;;;;8.10;7.25;;;;;;;-148.33;100.00;56587.81;5046965;28;20032;-58
2022/03/31 01:22:59;;;;;;;9.10;8.20;;;;;;;-148.33;100.00;56587.81;5046970;28;20027;-58
2022/03/31 01:25:26;;;;;;;9.13;8.05;;;;;;;-148.33;100.00;56587.81;5046963;28;20493;-59
2022/03/31 01:27:51;;;;;;;10.60;8.97;;;;;;;-148.33;100.00;56587.81;5047569;28;20024;-57
2022/03/31 01:30:22;;;;;;;10.20;8.70;;;;;;;-148.33;100.00;56587.81;5047055;28;20029;-56
2022/03/31 01:32:48;;;;;;;8.93;8.10;;;;;;;-148.33;100.00;56587.81;5047252;28;20044;-57
2022/03/31 01:35:14;;;;;;;9.80;8.53;;;;;;;-148.33;100.00;56587.81;5049125;28;20405;-58
2022/03/31 01:37:41;;;;;;;9.70;8.70;;;;;;;-148.33;100.00;56587.81;5051047;28;20072;-57
2022/03/31 01:40:07;;;;;;;9.70;8.70;;;;;;;-148.33;100.00;56587.81;5051469;28;20509;-58
2022/03/31 01:42:34;;;;;;;9.40;8.50;;;;;;;-148.33;100.00;56587.81;5051475;28;20052;-59
2022/03/31 01:44:59;;;;;;;12.40;9.47;;;;;;;-148.33;100.00;56587.81;5050641;28;20028;-55
2022/03/31 01:47:25;;;;;;;10.37;9.27;;;;;;;-148.33;100.00;56587.81;5050796;28;20070;-58
2022/03/31 01:49:51;;;;;;;10.30;9.30;;;;;;;-148.33;100.00;56587.81;5051092;28;20051;-58
2022/03/31 01:52:17;;;;;;;10.77;9.67;;;;;;;-148.33;100.00;56587.81;5050057;28;20151;-57
2022/03/31 01:54:42;;;;;;;11.80;10.67;;;;;;;-148.33;100.00;56587.81;5032554;28;20021;-58
2022/03/31 01:57:08;;;;;;;10.43;9.33;;;;;;;-148.33;100.00;56587.81;5051034;28;20295;-58
2022/03/31 01:59:35;;;;;;;10.10;9.10;;;;;;;-148.33;100.00;56587.81;5050827;28;20389;-58
2022/03/31 02:02:01;;;;;;;9.93;8.87;;;;;;;-148.33;100.00;56587.81;5049951;28;20052;-56
2022/03/31 02:04:26;;;;;;;10.93;8.97;;;;;;;-148.33;100.00;56587.81;5050541;28;20025;-57
2022/03/31 02:06:51;;;;;;;10.03;9.03;;;;;;;-148.33;100.00;56587.81;5049974;28;20025;-57
2022/03/31 02:09:17;;;;;;;10.70;9.60;;;;;;;-148.33;100.00;56587.81;5050967;28;20074;-57
2022/03/31 02:11:45;;;;;;;11.53;10.10;;;;;;;-148.33;100.00;56587.81;5051150;28;20027;-58
2022/03/31 02:14:12;;;;;;;10.93;9.83;;;;;;;-148.33;100.00;56587.81;5050238;28;20025;-58
2022/03/31 02:16:37;;;;;;;11.03;9.93;;;;;;;-148.33;100.00;56587.81;5050542;28;20032;-58
2022/03/31 02:19:02;;;;;;;14.50;10.63;;;;;;;-148.33;100.00;56587.81;5050277;28;20029;-57
2022/03/31 02:21:29;;;;;;;10.97;9.80;;;;;;;-148.33;100.00;56587.81;5050354;28;20025;-57
2022/03/31 02:23:54;;;;;;;11.60;10.23;;;;;;;-148.33;100.00;56587.81;5049958;28;20404;-58
2022/03/31 02:26:20;;;;;;;13.13;10.90;;;;;;;-148.33;100.00;56587.81;5050356;28;20025;-58
2022/03/31 02:28:45;;;;;;;12.30;10.60;;;;;;;-148.33;100.00;56587.81;5049644;28;20024;-58
2022/03/31 02:31:10;;;;;;;11.43;10.30;;;;;;;-148.33;100.00;56587.81;5050010;28;20036;-55
2022/03/31 02:33:36;;;;;;;12.40;10.93;;;;;;;-148.33;100.00;56587.81;5050058;28;20151;-57
2022/03/31 02:36:02;;;;;;;11.67;10.50;;;;;;;-148.33;100.00;56587.81;5049513;28;20405;-58
2022/03/31 02:38:27;;;;;;;11.47;10.37;;;;;;;-148.33;100.00;56587.81;5050080;28;20029;-55
2022/03/31 02:40:52;;;;;;;12.57;11.27;;;;;;;-148.33;100.00;56587.81;5050404;28;20036;-58
2022/03/31 02:43:18;;;;;;;12.07;10.77;;;;;;;-148.33;100.00;56587.81;5050165;28;20033;-58
2022/03/31 02:45:43;;;;;;;13.33;11.70;;;;;;;-148.33;100.00;56587.81;5049912;28;20017;-58
2022/03/31 02:48:08;;;;;;;13.00;11.20;;;;;;;-148.33;100.00;56587.81;5049893;28;20036;-57
2022/03/31 02:50:34;;;;;;;11.83;10.53;;;;;;;-148.33;100.00;56587.81;5049333;28;20079;-58
2022/03/31 02:55:43;;;;;;;11.20;10.07;;;;;;;-148.33;100.00;56587.81;5050447;28;20090;-58
2022/03/31 02:58:08;;;;;;;11.93;10.37;;;;;;;-148.33;100.00;56587.81;5049867;28;20427;-57
2022/03/31 03:00:37;;;;;;;11.70;10.50;;;;;;;-148.33;100.00;56587.81;5048656;28;20056;-57
2022/03/31 03:03:03;;;;;;;10.17;9.17;;;;;;;-148.33;100.00;56587.81;5049539;28;20112;-56
2022/03/31 03:05:29;;;;;;;10.80;9.70;;;;;;;-148.33;100.00;56587.81;5049711;28;20248;-57
2022/03/31 03:07:55;;;;;;;10.90;9.80;;;;;;;-148.33;100.00;56587.81;5049664;28;20031;-57
2022/03/31 03:10:20;;;;;;;11.33;10.17;;;;;;;-148.33;100.00;56587.81;5049975;28;20013;-57
2022/03/31 03:12:46;;;;;;;11.80;10.53;;;;;;;-148.33;100.00;56587.81;5049197;28;20025;-57
2022/03/31 03:15:11;;;;;;;11.10;10.10;;;;;;;-148.33;100.00;56587.81;5048833;28;20465;-58
2022/03/31 03:17:42;;;;;;;12.33;11.07;;;;;;;-148.33;100.00;56587.81;5049518;28;20674;-58
2022/03/31 03:20:13;;;;;;;11.68;10.57;;;;;;;-148.33;100.00;56587.81;5049414;28;20025;-56
2022/03/31 03:22:42;;;;;;;12.90;11.63;;;;;;;-148.33;100.00;56587.81;5049326;28;20029;-57
2022/03/31 03:25:07;;;;;;;12.63;11.07;;;;;;;-148.33;100.00;56587.81;5048762;28;20115;-56
2022/03/31 03:27:32;;;;;;;12.23;11.03;;;;;;;-148.33;100.00;56587.81;5048259;28;20025;-58
2022/03/31 03:29:58;;;;;;;12.97;11.67;;;;;;;-148.33;100.00;56587.81;5049028;28;20017;-56
2022/03/31 03:32:23;;;;;;;11.60;10.50;;;;;;;-148.33;100.00;56587.81;5049499;28;20040;-56
2022/03/31 03:34:49;;;;;;;12.90;11.67;;;;;;;-148.33;100.00;56587.81;5048911;28;20032;-57
2022/03/31 03:37:14;;;;;;;12.20;11.00;;;;;;;-148.33;100.00;56587.81;5048561;28;20100;-58
2022/03/31 03:39:39;;;;;;;13.00;11.63;;;;;;;-148.33;100.00;56587.81;5048807;28;20191;-57
2022/03/31 03:42:05;;;;;;;11.37;10.17;;;;;;;-148.33;100.00;56587.81;5048630;28;20064;-55
2022/03/31 03:44:30;;;;;;;7.03;6.33;;;;;;;-148.33;100.00;56587.81;5048683;28;20028;-57
2022/03/31 03:46:56;;;;;;;6.47;5.97;;;;;;;-148.33;100.00;56587.81;5049061;28;20039;-57
2022/03/31 03:49:21;;;;;;;5.63;5.13;;;;;;;-148.33;100.00;56587.81;5048238;28;20253;-55
2022/03/31 03:51:47;;;;;;;5.07;4.67;;;;;;;-148.33;100.00;56587.81;5048880;28;20493;-57
2022/03/31 03:54:12;;;;;;;4.93;4.53;;;;;;;-148.33;100.00;56587.81;5048104;28;20024;-57
2022/03/31 03:56:38;;;;;;;3.80;3.57;;;;;;;-148.33;100.00;56587.81;5048302;28;20438;-58
2022/03/31 03:59:04;;;;;;;4.70;4.30;;;;;;;-148.33;100.00;56587.81;5048069;28;20024;-57
2022/03/31 04:01:30;;;;;;;4.27;3.97;;;;;;;-148.33;100.00;56587.81;5048217;28;20520;-57
2022/03/31 04:03:55;;;;;;;4.43;3.93;;;;;;;-148.33;100.00;56587.81;5048591;28;20033;-53
2022/03/31 04:06:20;;;;;;;4.53;4.03;;;;;;;-148.33;100.00;56587.81;5048679;28;20256;-56
2022/03/31 04:08:46;;;;;;;3.37;3.10;;;;;;;-148.33;100.00;56587.81;5048019;28;20021;-58
2022/03/31 04:11:11;;;;;;;3.40;3.10;;;;;;;-148.33;100.00;56587.81;5048004;28;20021;-55
2022/03/31 04:13:36;;;;;;;3.77;3.47;;;;;;;-148.33;100.00;56587.81;5048302;28;20396;-57
2022/03/31 04:16:03;;;;;;;4.23;3.37;;;;;;;-148.33;100.00;56587.81;5048621;28;20096;-58
2022/03/31 04:18:29;;;;;;;4.03;3.27;;;;;;;-148.33;100.00;56587.81;5048223;28;20424;-58
2022/03/31 04:20:54;;;;;;;3.40;3.00;;;;;;;-148.33;100.00;56587.81;5048026;28;20036;-57
2022/03/31 04:23:19;;;;;;;3.87;3.57;;;;;;;-148.33;100.00;56587.81;5047859;28;20036;-57
2022/03/31 04:25:44;;;;;;;4.07;3.60;;;;;;;-148.33;100.00;56587.81;5047656;28;20021;-56
2022/03/31 04:28:10;;;;;;;3.30;3.03;;;;;;;-148.33;100.00;56587.81;5048201;28;20590;-58
2022/03/31 04:30:35;;;;;;;4.27;3.57;;;;;;;-148.33;100.00;56587.81;5047540;28;20117;-57
2022/03/31 04:33:00;;;;;;;4.60;4.20;;;;;;;-148.33;100.00;56587.81;5048009;28;20519;-58
2022/03/31 04:35:26;;;;;;;4.47;3.77;;;;;;;-148.33;100.00;56587.81;5048042;28;20168;-57
2022/03/31 04:37:51;;;;;;;3.83;3.60;;;;;;;-148.33;100.00;56587.81;5048435;28;20029;-57
2022/03/31 04:40:16;;;;;;;4.53;4.20;;;;;;;-148.33;100.00;56587.81;5047860;28;20116;-58
2022/03/31 04:42:42;;;;;;;3.70;3.40;;;;;;;-148.33;100.00;56587.81;5048270;28;20401;-58
2022/03/31 04:45:08;;;;;;;4.60;4.20;;;;;;;-148.33;100.00;56587.81;5048259;28;20028;-58
2022/03/31 04:47:34;;;;;;;3.83;3.53;;;;;;;-148.33;100.00;56587.81;5047987;28;20492;-58
2022/03/31 04:49:59;;;;;;;4.07;3.60;;;;;;;-148.33;100.00;56587.81;5047710;28;20041;-57
2022/03/31 04:52:25;;;;;;;4.00;3.70;;;;;;;-148.33;100.00;56587.81;5048007;28;20048;-57
2022/03/31 04:54:51;;;;;;;3.40;3.20;;;;;;;-148.33;100.00;56587.81;5047552;28;20029;-58
2022/03/31 04:57:18;;;;;;;4.17;3.27;;;;;;;-148.33;100.00;56587.81;5047944;28;20270;-58
2022/03/31 04:59:44;;;;;;;3.63;3.33;;;;;;;-148.33;100.00;56587.81;5047711;28;20565;-58
2022/03/31 05:02:11;;;;;;;3.63;3.33;;;;;;;-148.33;100.00;56587.81;5047351;28;20444;-59
2022/03/31 05:04:36;;;;;;;3.10;2.90;;;;;;;-148.33;100.00;56587.81;5047669;28;20082;-58
2022/03/31 05:07:02;;;;;;;2.77;2.57;;;;;;;-148.33;100.00;56587.81;5047760;28;20025;-58
2022/03/31 05:09:27;;;;;;;3.30;3.00;;;;;;;-148.33;100.00;56587.81;5048136;28;20025;-53
2022/03/31 05:11:53;;;;;;;3.27;2.97;;;;;;;-148.33;100.00;56587.81;5051914;28;20506;-57
2022/03/31 05:14:18;;;;;;;3.27;3.03;;;;;;;-148.33;100.00;56587.81;5051634;28;20085;-58
2022/03/31 05:16:44;;;;;;;3.73;3.43;;;;;;;-148.33;100.00;56587.81;5051890;28;20056;-58
2022/03/31 05:19:11;;;;;;;3.60;3.30;;;;;;;-148.33;100.00;56587.81;5052200;28;20028;-59
2022/03/31 05:21:36;;;;;;;3.77;3.47;;;;;;;-148.33;100.00;56587.81;5051233;28;20086;-59
2022/03/31 05:24:02;;;;;;;3.90;3.40;;;;;;;-148.33;100.00;56587.81;5050727;28;20358;-57
2022/03/31 05:26:27;;;;;;;3.37;3.10;;;;;;;-148.33;100.00;56587.81;5051768;28;20043;-56
2022/03/31 05:28:52;;;;;;;5.17;2.87;;;;;;;-148.33;100.00;56587.81;5051203;28;20391;-56
2022/03/31 05:31:17;;;;;;;3.60;3.30;;;;;;;-148.33;100.00;56587.81;5050725;28;20446;-56
2022/03/31 05:33:43;;;;;;;3.87;3.50;;;;;;;-148.33;100.00;56587.81;5051107;28;20032;-60
2022/03/31 05:36:08;;;;;;;5.03;3.53;;;;;;;-148.33;100.00;56587.81;5050584;28;20021;-59
2022/03/31 05:38:33;;;;;;;4.13;3.73;;;;;;;-148.33;100.00;56587.81;5051620;28;20028;-60
2022/03/31 05:40:59;;;;;;;3.30;3.00;;;;;;;-148.33;100.00;56587.81;5050263;28;20469;-58
2022/03/31 05:43:24;;;;;;;3.53;3.20;;;;;;;-148.33;100.00;56587.81;5051273;28;20465;-60
2022/03/31 05:45:50;;;;;;;3.33;3.03;;;;;;;-148.33;100.00;56587.81;5051478;28;20025;-61
2022/03/31 05:48:15;;;;;;;3.00;2.80;;;;;;;-148.33;100.00;56587.81;5050755;28;20453;-54
2022/03/31 05:50:40;;;;;;;3.07;2.33;;;;;;;-148.33;100.00;56587.81;5050560;28;20059;-53
2022/03/31 05:53:06;;;;;;;2.47;2.27;;;;;;;-148.33;100.00;56587.81;5049148;28;20024;-57
2022/03/31 05:55:32;;;;;;;2.20;2.10;;;;;;;-148.33;100.00;56587.81;5049298;28;20477;-58
2022/03/31 05:57:58;;;;;;;2.70;2.50;;;;;;;-148.33;100.00;56587.81;5048277;28;20040;-57
2022/03/31 06:00:23;;;;;;;3.03;2.37;;;;;;;-148.33;100.00;56587.81;5049163;28;20044;-55
2022/03/31 06:02:50;;;;;;;3.80;2.50;;;;;;;-148.33;100.00;56587.81;5048529;28;20048;-56
2022/03/31 06:05:17;;;;;;;2.67;2.40;;;;;;;-148.33;100.00;56587.81;5048992;28;20085;-55
2022/03/31 06:07:42;;;;;;;2.23;2.03;;;;;;;-148.33;100.00;56587.81;5048456;28;20028;-57
2022/03/31 06:10:08;;;;;;;2.63;1.93;;;;;;;-148.33;100.00;56587.81;5050282;28;20044;-57
2022/03/31 06:12:34;;;;;;;2.07;1.93;;;;;;;-148.33;100.00;56587.81;5050750;28;20025;-57
2022/03/31 06:15:03;;;;;;;2.50;2.30;;;;;;;-148.33;100.00;56587.81;5050284;28;20032;-58
2022/03/31 06:17:28;;;;;;;3.63;2.40;;;;;;;-148.33;100.00;56587.81;5050467;28;20111;-56
2022/03/31 06:19:53;;;;;;;2.70;2.43;;;;;;;-148.33;100.00;56587.81;5050143;28;20115;-57
2022/03/31 06:22:19;;;;;;;3.13;2.47;;;;;;;-148.33;100.00;56587.81;5049755;28;20063;-58
2022/03/31 06:24:44;;;;;;;3.87;2.77;;;;;;;-148.33;100.00;56587.81;5050551;28;20029;-58
2022/03/31 06:27:11;;;;;;;3.33;2.70;;;;;;;-148.33;100.00;56587.81;5050154;28;20020;-58
2022/03/31 06:29:37;;;;;;;3.37;2.43;;;;;;;-148.33;100.00;56587.81;5050597;28;20040;-58
2022/03/31 06:32:03;;;;;;;3.10;2.80;;;;;;;-148.33;100.00;56587.81;5049833;28;20393;-57
2022/03/31 06:34:28;;;;;;;2.77;2.57;;;;;;;-148.33;100.00;56587.81;5049244;28;20033;-57
2022/03/31 06:36:55;;;;;;;3.90;2.47;;;;;;;-148.33;100.00;56587.81;5049537;28;20092;-57
2022/03/31 06:39:20;;;;;;;4.03;2.53;;;;;;;-148.33;100.00;56587.81;5049916;28;20049;-58
2022/03/31 06:41:46;;;;;;;2.27;2.07;;;;;;;-148.33;100.00;56587.81;5049399;28;20049;-59
2022/03/31 06:44:13;;;;;;;2.93;2.73;;;;;;;-148.33;100.00;56587.81;5052153;28;20429;-60
2022/03/31 06:46:39;;;;;;;2.50;2.30;;;;;;;-148.33;100.00;56587.81;5050557;28;20029;-59
2022/03/31 06:49:05;;;;;;;2.53;2.33;;;;;;;-148.33;100.00;56587.81;5050833;28;20523;-58
2022/03/31 06:51:31;;;;;;;2.97;2.77;;;;;;;-148.33;100.00;56587.81;5052266;28;20053;-59
2022/03/31 06:53:57;;;;;;;2.97;2.70;;;;;;;-148.33;100.00;56587.81;5051613;28;20768;-59
2022/03/31 06:56:24;;;;;;;3.00;2.80;;;;;;;-148.33;100.00;56587.81;5049314;28;20091;-56
2022/03/31 06:58:49;;;;;;;3.53;3.23;;;;;;;-148.33;100.00;56587.81;5049007;28;20484;-55
2022/03/31 07:01:14;;;;;;;3.83;3.17;;;;;;;-148.33;100.00;56587.81;5048503;28;20116;-58
2022/03/31 07:03:40;;;;;;;3.10;2.90;;;;;;;-148.33;100.00;56587.81;5048840;28;20392;-59
2022/03/31 07:06:06;;;;;;;3.63;3.33;;;;;;;-148.33;100.00;56587.81;5049082;28;20029;-60
2022/03/31 07:08:33;;;;;;;3.87;3.57;;;;;;;-148.33;100.00;56587.81;5049508;28;20222;-57
2022/03/31 07:10:59;;;;;;;3.90;3.30;;;;;;;-148.33;100.00;56587.81;5056323;28;20091;-58
2022/03/31 07:13:25;;;;;;;3.53;3.27;;;;;;;-148.33;100.00;56587.81;5053230;28;20017;-58
2022/03/31 07:15:50;;;;;;;3.60;3.30;;;;;;;-148.33;100.00;56587.81;5054122;28;20036;-58
2022/03/31 07:18:15;;;;;;;3.73;3.43;;;;;;;-148.33;100.00;56587.81;5048948;28;20033;-58
2022/03/31 07:20:41;;;;;;;3.77;3.47;;;;;;;-148.33;100.00;56587.81;5049162;28;20021;-57
2022/03/31 07:23:06;;;;;;;3.83;3.53;;;;;;;-148.33;100.00;56587.81;5049368;28;20107;-59
2022/03/31 07:25:32;;;;;;;4.00;3.70;;;;;;;-148.33;100.00;56587.81;5048893;28;20104;-59
2022/03/31 07:27:57;;;;;;;4.20;3.80;;;;;;;-148.33;100.00;56587.81;5055515;28;20029;-58
2022/03/31 07:30:24;;;;;;;3.83;3.53;;;;;;;-148.33;100.00;56587.81;5048655;28;20016;-59
2022/03/31 07:32:56;;;;;;;4.47;4.07;;;;;;;-148.33;100.00;56587.81;5047782;28;20035;-57
2022/03/31 07:35:24;;;;;;;4.50;4.10;;;;;;;-148.33;100.00;56587.81;5049309;28;20024;-58
2022/03/31 07:37:51;;;;;;;5.27;4.87;;;;;;;-148.33;100.00;56587.81;5058316;28;20032;-60
2022/03/31 07:40:17;;;;;;;4.50;4.20;;;;;;;-148.33;100.00;56587.81;5067662;28;20036;-59
2022/03/31 07:42:42;;;;;;;4.73;4.43;;;;;;;-148.33;100.00;56587.81;5067269;28;20028;-56
2022/03/31 07:45:08;;;;;;;4.10;3.70;;;;;;;-148.33;100.00;56587.81;5067961;28;20078;-59
2022/03/31 07:47:34;;;;;;;4.40;4.10;;;;;;;-148.33;100.00;56587.81;5068297;28;20111;-59
2022/03/31 07:49:59;;;;;;;3.70;3.50;;;;;;;-148.33;100.00;56587.81;5064149;28;20115;-57
2022/03/31 07:52:24;;;;;;;4.00;3.60;;;;;;;-148.33;100.00;56587.81;5047844;28;20029;-58
2022/03/31 07:54:50;;;;;;;4.07;3.77;;;;;;;-148.33;100.00;56587.81;5048245;28;20029;-56
2022/03/31 07:57:17;;;;;;;4.10;3.83;;;;;;;-148.33;100.00;56587.81;5048287;28;20033;-60
2022/03/31 07:59:42;;;;;;;4.13;3.83;;;;;;;-148.33;100.00;56587.81;5048222;28;20060;-58
2022/03/31 08:02:08;;;;;;;4.37;4.07;;;;;;;-148.33;100.00;56587.81;5048230;28;20087;-59
2022/03/31 08:04:33;;;;;;;4.50;4.10;;;;;;;-148.33;100.00;56587.81;5048232;28;20477;-58
2022/03/31 08:06:59;;;;;;;4.03;3.70;;;;;;;-148.33;100.00;56587.81;5048423;28;20033;-60
2022/03/31 08:09:24;;;;;;;4.07;3.77;;;;;;;-148.33;100.00;56587.81;5067643;28;20027;-59
2022/03/31 08:11:50;;;;;;;4.30;4.00;;;;;;;-148.33;100.00;56587.81;5064184;28;20028;-56
2022/03/31 08:14:19;;;;;;;3.70;3.40;;;;;;;-148.33;100.00;56587.81;5048440;28;20048;-59
2022/03/31 08:16:46;;;;;;;4.10;3.80;;;;;;;-148.33;100.00;56587.81;5047911;28;20028;-58
2022/03/31 08:19:13;;;;;;;4.00;3.70;;;;;;;-148.33;100.00;56587.81;5048384;28;20456;-59
2022/03/31 08:21:38;;;;;;;4.13;3.63;;;;;;;-148.33;100.00;56587.81;5047652;28;20033;-56
2022/03/31 08:24:03;;;;;;;3.60;3.30;;;;;;;-148.33;100.00;56587.81;5047989;28;20051;-58
2022/03/31 08:26:29;;;;;;;3.90;3.60;;;;;;;-148.33;100.00;56587.81;5048054;28;20031;-59
2022/03/31 08:28:54;;;;;;;3.70;3.43;;;;;;;-148.33;100.00;56587.81;5055960;28;20443;-60
2022/03/31 08:31:20;;;;;;;4.03;3.70;;;;;;;-148.33;100.00;56587.81;5057743;28;20456;-57
2022/03/31 08:33:45;;;;;;;4.07;3.77;;;;;;;-148.33;100.00;56587.81;5051953;28;20024;-56
2022/03/31 08:36:10;;;;;;;3.50;3.30;;;;;;;-148.33;100.00;56587.81;5051061;28;20090;-59
2022/03/31 08:38:35;;;;;;;3.60;3.30;;;;;;;-148.33;100.00;56587.81;5052583;28;20024;-60
2022/03/31 08:41:02;;;;;;;3.70;3.40;;;;;;;-148.33;100.00;56587.81;5049067;28;20385;-59
2022/03/31 08:43:30;;;;;;;3.80;3.03;;;;;;;-148.33;100.00;56587.81;5049520;28;20447;-59
2022/03/31 08:45:55;;;;;;;3.97;2.93;;;;;;;-148.33;100.00;56587.81;5047384;28;20016;-58
2022/03/31 08:48:24;;;;;;;3.70;3.40;;;;;;;-148.33;100.00;56587.81;5063768;28;20370;-59
2022/03/31 08:50:49;;;;;;;3.67;3.40;;;;;;;-148.33;100.00;56587.81;5067164;28;20476;-58
2022/03/31 08:53:15;;;;;;;4.63;2.93;;;;;;;-148.33;100.00;56587.81;5066737;28;20020;-58
2022/03/31 08:55:40;;;;;;;3.60;3.30;;;;;;;-148.33;100.00;56587.81;5066793;28;20451;-58
2022/03/31 08:58:05;;;;;;;3.67;3.47;;;;;;;-148.33;100.00;56587.81;5067457;28;20035;-56
2022/03/31 09:00:31;;;;;;;3.77;3.47;;;;;;;-148.33;100.00;56587.81;5062657;28;20477;-58
2022/03/31 09:03:00;;;;;;;3.00;2.80;;;;;;;-148.33;100.00;56587.81;5048118;28;20048;-59
2022/03/31 09:05:27;;;;;;;3.77;3.47;;;;;;;-148.33;100.00;56587.81;5047236;28;20029;-56
2022/03/31 09:08:00;;;;;;;4.10;3.80;;;;;;;-148.33;100.00;56587.81;5047834;28;20505;-56
2022/03/31 09:10:31;;;;;;;4.30;3.90;;;;;;;-148.33;100.00;56587.81;5047640;28;20021;-56
2022/03/31 09:12:58;;;;;;;3.35;3.05;;;;;;;-148.33;100.00;56587.81;5047798;28;20028;-60
2022/03/31 09:15:24;;;;;;;4.20;3.90;;;;;;;-148.33;100.00;56587.81;5047252;28;20028;-59
2022/03/31 09:17:53;;;;;;;3.90;3.67;;;;;;;-148.33;100.00;56587.81;5047477;28;20021;-58
2022/03/31 09:20:20;;;;;;;3.77;3.53;;;;;;;-148.33;100.00;56587.81;5047675;28;20021;-59
2022/03/31 09:22:49;;;;;;;3.47;3.17;;;;;;;-148.33;100.00;56587.81;5047738;28;20037;-59
2022/03/31 09:25:25;;;;;;;3.60;3.30;;;;;;;-148.33;100.00;56587.81;5045904;28;20074;-57
2022/03/31 09:27:50;;;;;;;3.67;3.37;;;;;;;-148.33;100.00;56587.81;5051327;28;20025;-59
2022/03/31 09:30:17;;;;;;;3.93;3.57;;;;;;;-148.33;100.00;56587.81;5066539;28;20047;-59
2022/03/31 09:32:48;;;;;;;3.63;3.33;;;;;;;-148.33;100.00;56587.81;5053834;28;20100;-59
2022/03/31 09:35:17;;;;;;;3.70;3.40;;;;;;;-148.33;100.00;56587.81;5049539;28;20067;-58
2022/03/31 09:37:43;;;;;;;3.73;3.43;;;;;;;-148.33;100.00;56587.81;5066284;28;20158;-59
2022/03/31 09:40:09;;;;;;;3.63;3.33;;;;;;;-148.33;100.00;56587.81;5050826;28;20033;-57
2022/03/31 09:42:34;;;;;;;3.80;3.50;;;;;;;-148.33;100.00;56587.81;5047442;28;20021;-59
2022/03/31 09:44:59;;;;;;;3.60;3.30;;;;;;;-148.33;100.00;56587.81;5052270;28;20032;-58
2022/03/31 09:47:26;;;;;;;4.03;3.73;;;;;;;-148.33;100.00;56587.81;5047016;28;20024;-58
2022/03/31 09:49:54;;;;;;;3.73;3.43;;;;;;;-148.33;100.00;56587.81;5047879;28;20099;-59
2022/03/31 09:52:20;;;;;;;4.00;3.70;;;;;;;-148.33;100.00;56587.81;5047489;28;20017;-60
2022/03/31 09:54:48;;;;;;;3.80;3.50;;;;;;;-148.33;100.00;56587.81;5046844;28;20032;-57
2022/03/31 09:57:14;;;;;;;3.83;3.53;;;;;;;-148.33;100.00;56587.81;5050423;28;20075;-55
2022/03/31 09:59:40;;;;;;;4.00;3.70;;;;;;;-148.33;100.00;56587.81;5051039;28;20037;-59
2022/03/31 10:02:06;;;;;;;4.03;3.73;;;;;;;-148.33;100.00;56587.81;5050401;28;20049;-59
2022/03/31 10:04:33;;;;;;;4.03;3.63;;;;;;;-148.33;100.00;56587.81;5050920;28;20040;-59
2022/03/31 10:06:58;;;;;;;4.20;3.90;;;;;;;-148.33;100.00;56587.81;5050885;28;20032;-56
2022/03/31 10:09:24;;;;;;;4.90;3.77;;;;;;;-148.33;100.00;56587.81;5050649;28;20393;-56
2022/03/31 10:12:26;;;;;;;3.83;3.53;;;;;;;-148.33;100.00;56587.81;5050556;28;20283;-58
2022/03/31 10:15:00;;;;;;;4.07;3.77;;;;;;;-148.33;100.00;56587.81;5050707;28;20119;-59
2022/03/31 10:17:29;;;;;;;4.10;3.80;;;;;;;-148.33;100.00;56587.81;5051124;28;20029;-59
2022/03/31 10:20:06;;;;;;;4.47;4.17;;;;;;;-148.33;100.00;56587.81;5052255;28;20067;-59
2022/03/31 10:25:15;;;;;;;4.27;3.97;;;;;;;-148.33;100.00;56587.81;5050992;28;20040;-58
2022/03/31 10:27:45;;;;;;;4.23;3.90;;;;;;;-148.33;100.00;56587.81;5054327;28;20025;-58
2022/03/31 10:30:25;;;;;;;3.70;3.40;;;;;;;-148.33;100.00;56587.81;5052729;28;20139;-57
2022/03/31 10:33:02;;;;;;;4.30;4.00;;;;;;;-148.33;100.00;56587.81;5058209;28;20086;-58
2022/03/31 10:35:31;;;;;;;4.20;3.80;;;;;;;-148.33;100.00;56587.81;5053488;28;20510;-57
2022/03/31 10:37:58;;;;;;;3.43;3.17;;;;;;;-148.33;100.00;56587.81;5051839;28;20432;-58
2022/03/31 10:40:40;;;;;;;4.00;3.70;;;;;;;-148.33;100.00;56587.81;5054390;28;20060;-58
2022/03/31 10:43:06;;;;;;;3.83;3.60;;;;;;;-148.33;100.00;56587.81;5052763;28;20029;-56
2022/03/31 10:45:37;;;;;;;3.80;3.50;;;;;;;-148.33;100.00;56587.81;5052515;28;20063;-56
2022/03/31 10:48:20;;;;;;;3.83;3.47;;;;;;;-148.33;100.00;56587.81;5057047;28;20401;-59
2022/03/31 10:50:48;;;;;;;3.47;3.17;;;;;;;-148.33;100.00;56587.81;5066445;28;20024;-58
2022/03/31 10:53:14;;;;;;;4.27;3.87;;;;;;;-148.33;100.00;56587.81;5053380;28;20016;-58
2022/03/31 10:55:49;;;;;;;3.57;3.33;;;;;;;-148.33;100.00;56587.81;5064949;28;20083;-57
2022/03/31 10:58:28;;;;;;;3.70;3.40;;;;;;;-148.33;100.00;56587.81;5069098;28;20960;-56
2022/03/31 11:00:55;;;;;;;4.00;3.70;;;;;;;-148.33;100.00;56587.81;5069126;28;20016;-58
2022/03/31 11:03:21;;;;;;;3.50;3.20;;;;;;;-148.33;100.00;56587.81;5068928;28;20190;-57
2022/03/31 11:05:48;;;;;;;4.10;3.80;;;;;;;-148.33;100.00;56587.81;5056577;28;20035;-58
2022/03/31 11:08:18;;;;;;;4.03;3.73;;;;;;;-148.33;100.00;56587.81;5066742;28;20024;-58
2022/03/31 11:10:47;;;;;;;3.85;3.63;;;;;;;-148.33;100.00;56587.81;5067512;28;20052;-59
2022/03/31 11:13:14;;;;;;;3.40;3.10;;;;;;;-148.33;100.00;56587.81;5068559;28;20473;-58
2022/03/31 11:15:39;;;;;;;3.20;3.00;;;;;;;-148.33;100.00;56587.81;5069053;28;20028;-58
2022/03/31 11:18:05;;;;;;;3.30;3.10;;;;;;;-148.33;100.00;56587.81;5058490;28;20381;-58
2022/03/31 11:20:31;;;;;;;3.97;3.67;;;;;;;-148.33;100.00;56587.81;5049396;28;20103;-58
2022/03/31 11:23:03;;;;;;;4.00;3.60;;;;;;;-148.33;100.00;56587.81;5066607;28;20035;-58
2022/03/31 11:25:29;;;;;;;4.33;4.03;;;;;;;-148.33;100.00;56587.81;5068538;28;20107;-60